Pelton, United Kingdom
Current Conditions -  °F | °C
As of 3:50 PM on Thursday 27 Nov 2014 (Local Time) from EGNT Reporting Station
Broken Clouds Broken Clouds  
Wind Chill: 48°   Ceiling: 1400
Heat Index: 48°   Visibility: 5mi
Dew Point: 48°   Wind: 2mph
Humidity: 100%   Direction: 130°SE
Pressure: 29.56"   Gusts: NA
Location:  54.87°N, 1.61°W
Report Text: EGNT 271550Z 13002KT 8000 SCT012 BKN014 09/09 Q1001
Loading
Personal Weather Stations






























Interactive Weather Map New forecast layout! Learn more

10-Day Weather Forecast

Advertisements
Track Severe Weather on mobile